createdAt,value
2023-04-18T00:07:41.482Z,15.10
2023-04-18T00:17:43.763Z,13.80
2023-04-18T00:27:45.680Z,13.95
2023-04-18T00:37:47.584Z,14.57
2023-04-18T00:47:51.866Z,15.48
2023-04-18T00:57:53.853Z,12.77
2023-04-18T01:08:01.301Z,13.77
2023-04-18T01:18:04.095Z,13.88
2023-04-18T01:28:07.478Z,11.93
2023-04-18T01:38:10.423Z,13.15
2023-04-18T01:48:13.480Z,13.23
2023-04-18T01:58:25.815Z,12.88
2023-04-18T02:08:28.796Z,14.95
2023-04-18T02:18:30.809Z,13.23
2023-04-18T02:28:33.028Z,13.15
2023-04-18T02:38:34.902Z,12.70
2023-04-18T02:48:37.965Z,13.43
2023-04-18T02:58:40.916Z,14.05
2023-04-18T03:08:42.882Z,13.88
2023-04-18T03:18:46.841Z,16.10
2023-04-18T03:28:49.739Z,15.50
2023-04-18T03:38:51.704Z,16.13
2023-04-18T03:48:53.615Z,15.60
2023-04-18T03:58:58.906Z,15.70
2023-04-18T04:09:01.386Z,15.00
2023-04-18T04:19:04.816Z,15.60
2023-04-18T04:29:06.679Z,14.95
2023-04-18T04:39:09.887Z,14.32
2023-04-18T04:49:12.940Z,15.13
2023-04-18T04:59:15.170Z,14.50
2023-04-18T05:09:18.125Z,13.40
2023-04-18T05:19:20.162Z,14.32
2023-04-18T05:29:24.329Z,14.23
2023-04-18T05:39:27.358Z,14.63
2023-04-18T05:49:29.730Z,17.30
2023-04-18T05:59:31.721Z,16.35
2023-04-18T06:09:39.698Z,12.73
2023-04-18T06:19:41.617Z,16.05
2023-04-18T06:29:51.032Z,14.30
2023-04-18T06:39:55.202Z,16.15
2023-04-18T06:50:02.213Z,12.27
2023-04-18T07:00:05.576Z,17.10
2023-04-18T07:10:09.896Z,15.45
2023-04-18T07:20:13.081Z,13.45
2023-04-18T07:30:16.589Z,15.02
2023-04-18T07:40:24.764Z,15.18
2023-04-18T07:50:27.585Z,14.27
2023-04-18T08:00:32.839Z,13.55
2023-04-18T08:11:00.676Z,14.73
2023-04-18T08:21:02.694Z,13.35
2023-04-18T08:31:04.654Z,16.20
2023-04-18T08:41:06.775Z,15.20
2023-04-18T08:51:34.624Z,16.17
2023-04-18T09:01:57.518Z,15.90
2023-04-18T09:12:14.859Z,16.20
2023-04-18T09:22:18.369Z,14.02
2023-04-18T09:32:27.303Z,13.48
2023-04-18T09:42:36.400Z,14.05
2023-04-18T09:53:02.027Z,14.65
2023-04-18T10:03:09.973Z,13.35
2023-04-18T10:13:19.827Z,11.80
2023-04-18T10:23:41.175Z,11.13
2023-04-18T10:34:03.244Z,14.80
2023-04-18T10:44:09.839Z,12.20
2023-04-18T10:54:18.096Z,12.80
2023-04-18T11:04:26.023Z,13.80
2023-04-18T11:14:43.847Z,13.98
2023-04-18T11:24:45.946Z,13.70
2023-04-18T11:34:53.646Z,13.90
2023-04-18T11:44:55.942Z,12.60
2023-04-18T11:55:31.037Z,13.38
2023-04-18T12:05:36.442Z,12.35
2023-04-18T12:15:47.463Z,12.70
2023-04-18T12:26:23.138Z,12.15
2023-04-18T12:36:26.365Z,10.70
2023-04-18T12:46:35.449Z,12.18
2023-04-18T12:56:37.538Z,12.38
2023-04-18T13:06:59.746Z,11.02
2023-04-18T13:17:01.865Z,6.72
2023-04-18T13:27:14.944Z,7.00
2023-04-18T13:37:17.254Z,7.32
2023-04-18T13:47:19.511Z,8.18
2023-04-18T13:57:23.462Z,5.07
2023-04-18T14:07:28.770Z,7.47
2023-04-18T14:17:31.493Z,5.10
2023-04-18T14:27:35.527Z,6.95
2023-04-18T14:37:57.641Z,3.70
2023-04-18T14:48:07.855Z,5.72
2023-04-18T14:58:14.920Z,5.85
2023-04-18T15:08:24.883Z,5.32
2023-04-18T15:18:29.096Z,3.70
2023-04-18T15:28:31.767Z,4.40
2023-04-18T15:38:33.764Z,4.28
2023-04-18T15:48:38.888Z,4.57
2023-04-18T15:58:40.881Z,4.88
2023-04-18T16:09:08.446Z,4.20
2023-04-18T16:19:10.428Z,5.25
2023-04-18T16:29:12.625Z,4.68
2023-04-18T16:39:25.979Z,4.03
2023-04-18T16:49:29.260Z,4.50
2023-04-18T16:59:39.799Z,5.07
2023-04-18T17:09:47.454Z,5.60
2023-04-18T17:19:55.981Z,4.70
2023-04-18T17:30:00.239Z,6.88
2023-04-18T17:40:12.121Z,9.45
2023-04-18T17:50:15.440Z,7.85
2023-04-18T18:00:23.721Z,5.18
2023-04-18T18:10:27.803Z,7.97
2023-04-18T18:20:31.520Z,6.20
2023-04-18T18:30:40.120Z,7.05
2023-04-18T18:41:03.716Z,4.43
2023-04-18T18:51:13.819Z,7.97
2023-04-18T19:01:31.952Z,4.18
2023-04-18T19:11:34.171Z,4.57
2023-04-18T19:21:40.583Z,4.03
2023-04-18T19:31:44.603Z,4.50
2023-04-18T19:41:47.289Z,4.57
2023-04-18T19:51:52.187Z,3.75
2023-04-18T20:01:54.671Z,2.85
2023-04-18T20:12:00.950Z,2.95
2023-04-18T20:22:06.670Z,3.28
2023-04-18T20:32:15.162Z,2.70
2023-04-18T20:42:19.151Z,3.28
2023-04-18T20:52:40.106Z,7.57
2023-04-18T21:03:00.849Z,7.30
2023-04-18T21:13:34.869Z,4.20
2023-04-18T21:23:46.879Z,3.42
2023-04-18T21:33:52.918Z,6.25
2023-04-18T21:43:54.940Z,4.93
2023-04-18T21:53:56.924Z,5.57
2023-04-18T22:03:58.943Z,3.20
2023-04-18T22:14:01.728Z,4.00
2023-04-18T22:24:03.794Z,4.75
2023-04-18T22:34:05.957Z,3.90
2023-04-18T22:44:14.342Z,3.08
2023-04-18T22:54:16.618Z,2.97
2023-04-18T23:04:19.825Z,3.70
2023-04-18T23:14:22.811Z,4.32
2023-04-18T23:24:24.789Z,3.30
2023-04-18T23:34:28.689Z,3.92
2023-04-18T23:44:31.888Z,5.20
2023-04-18T23:54:37.848Z,4.90
